sensor_id;sensor_type;location;lat;lon;timestamp;P1;durP1;ratioP1;P2;durP2;ratioP2
25982;SDS011;13773;48.868;10.730;2022-11-22T00:01:11;4.37;;;3.60;;
25982;SDS011;13773;48.868;10.730;2022-11-22T00:03:36;7.50;;;4.20;;
25982;SDS011;13773;48.868;10.730;2022-11-22T00:06:02;4.93;;;3.27;;
25982;SDS011;13773;48.868;10.730;2022-11-22T00:08:28;4.30;;;3.50;;
25982;SDS011;13773;48.868;10.730;2022-11-22T00:10:53;5.50;;;3.70;;
25982;SDS011;13773;48.868;10.730;2022-11-22T00:13:19;5.00;;;3.80;;
25982;SDS011;13773;48.868;10.730;2022-11-22T00:15:56;7.80;;;3.63;;
25982;SDS011;13773;48.868;10.730;2022-11-22T00:18:26;5.97;;;3.40;;
25982;SDS011;13773;48.868;10.730;2022-11-22T00:20:52;5.63;;;3.33;;
25982;SDS011;13773;48.868;10.730;2022-11-22T00:23:17;6.53;;;3.60;;
25982;SDS011;13773;48.868;10.730;2022-11-22T00:25:44;4.17;;;3.03;;
25982;SDS011;13773;48.868;10.730;2022-11-22T00:28:09;4.90;;;3.47;;
25982;SDS011;13773;48.868;10.730;2022-11-22T00:30:35;7.57;;;4.07;;
25982;SDS011;13773;48.868;10.730;2022-11-22T00:33:01;6.53;;;3.83;;
25982;SDS011;13773;48.868;10.730;2022-11-22T00:35:27;4.23;;;3.60;;
25982;SDS011;13773;48.868;10.730;2022-11-22T00:37:53;7.73;;;3.23;;
25982;SDS011;13773;48.868;10.730;2022-11-22T00:40:18;4.83;;;3.57;;
25982;SDS011;13773;48.868;10.730;2022-11-22T00:42:44;4.43;;;3.57;;
25982;SDS011;13773;48.868;10.730;2022-11-22T00:45:10;6.47;;;4.10;;
25982;SDS011;13773;48.868;10.730;2022-11-22T00:47:36;5.90;;;3.63;;
25982;SDS011;13773;48.868;10.730;2022-11-22T00:50:02;4.60;;;3.50;;
25982;SDS011;13773;48.868;10.730;2022-11-22T00:52:29;5.03;;;3.40;;
25982;SDS011;13773;48.868;10.730;2022-11-22T00:54:54;7.07;;;3.87;;
25982;SDS011;13773;48.868;10.730;2022-11-22T00:57:20;4.67;;;3.47;;
25982;SDS011;13773;48.868;10.730;2022-11-22T00:59:46;4.33;;;3.60;;
25982;SDS011;13773;48.868;10.730;2022-11-22T01:02:11;6.17;;;3.90;;
25982;SDS011;13773;48.868;10.730;2022-11-22T01:04:37;4.20;;;3.60;;
25982;SDS011;13773;48.868;10.730;2022-11-22T01:07:03;6.10;;;3.47;;
25982;SDS011;13773;48.868;10.730;2022-11-22T01:09:29;7.77;;;3.57;;
25982;SDS011;13773;48.868;10.730;2022-11-22T01:11:54;5.63;;;4.57;;
25982;SDS011;13773;48.868;10.730;2022-11-22T01:14:20;6.20;;;3.77;;
25982;SDS011;13773;48.868;10.730;2022-11-22T01:16:46;6.67;;;4.07;;
25982;SDS011;13773;48.868;10.730;2022-11-22T01:19:12;8.00;;;3.90;;
25982;SDS011;13773;48.868;10.730;2022-11-22T01:21:38;5.40;;;3.93;;
25982;SDS011;13773;48.868;10.730;2022-11-22T01:24:04;4.03;;;3.63;;
25982;SDS011;13773;48.868;10.730;2022-11-22T01:26:30;6.13;;;4.70;;
25982;SDS011;13773;48.868;10.730;2022-11-22T01:28:57;4.20;;;3.80;;
25982;SDS011;13773;48.868;10.730;2022-11-22T01:31:22;5.07;;;3.90;;
25982;SDS011;13773;48.868;10.730;2022-11-22T01:33:48;5.50;;;3.80;;
25982;SDS011;13773;48.868;10.730;2022-11-22T01:36:14;5.47;;;3.43;;
25982;SDS011;13773;48.868;10.730;2022-11-22T01:38:39;8.07;;;4.40;;
25982;SDS011;13773;48.868;10.730;2022-11-22T01:41:05;6.03;;;3.93;;
25982;SDS011;13773;48.868;10.730;2022-11-22T01:43:31;6.37;;;4.30;;
25982;SDS011;13773;48.868;10.730;2022-11-22T01:45:57;5.13;;;3.93;;
25982;SDS011;13773;48.868;10.730;2022-11-22T01:51:58;4.57;;;3.53;;
25982;SDS011;13773;48.868;10.730;2022-11-22T01:53:58;5.40;;;4.03;;
25982;SDS011;13773;48.868;10.730;2022-11-22T01:56:27;5.87;;;3.97;;
25982;SDS011;13773;48.868;10.730;2022-11-22T01:58:56;5.77;;;3.83;;
25982;SDS011;13773;48.868;10.730;2022-11-22T02:01:24;5.97;;;3.40;;
25982;SDS011;13773;48.868;10.730;2022-11-22T02:03:52;3.80;;;3.37;;
25982;SDS011;13773;48.868;10.730;2022-11-22T02:06:20;5.40;;;3.50;;
25982;SDS011;13773;48.868;10.730;2022-11-22T02:08:53;3.60;;;3.20;;
25982;SDS011;13773;48.868;10.730;2022-11-22T02:11:24;4.13;;;2.80;;
25982;SDS011;13773;48.868;10.730;2022-11-22T02:13:52;4.33;;;3.27;;
25982;SDS011;13773;48.868;10.730;2022-11-22T02:16:19;4.77;;;3.40;;
25982;SDS011;13773;48.868;10.730;2022-11-22T02:18:46;5.17;;;4.07;;
25982;SDS011;13773;48.868;10.730;2022-11-22T02:21:11;4.50;;;3.33;;
25982;SDS011;13773;48.868;10.730;2022-11-22T02:23:43;4.37;;;3.37;;
25982;SDS011;13773;48.868;10.730;2022-11-22T02:26:15;6.00;;;3.40;;
25982;SDS011;13773;48.868;10.730;2022-11-22T02:28:41;5.17;;;3.60;;
25982;SDS011;13773;48.868;10.730;2022-11-22T02:31:07;5.70;;;3.97;;
25982;SDS011;13773;48.868;10.730;2022-11-22T02:33:33;5.37;;;3.93;;
25982;SDS011;13773;48.868;10.730;2022-11-22T02:35:59;4.40;;;3.83;;
25982;SDS011;13773;48.868;10.730;2022-11-22T02:38:26;4.57;;;3.73;;
25982;SDS011;13773;48.868;10.730;2022-11-22T02:43:33;6.53;;;3.60;;
25982;SDS011;13773;48.868;10.730;2022-11-22T02:46:06;4.87;;;4.10;;
25982;SDS011;13773;48.868;10.730;2022-11-22T02:48:39;4.47;;;3.80;;
25982;SDS011;13773;48.868;10.730;2022-11-22T02:51:06;8.07;;;4.07;;
25982;SDS011;13773;48.868;10.730;2022-11-22T02:53:32;7.17;;;4.10;;
25982;SDS011;13773;48.868;10.730;2022-11-22T02:55:57;4.93;;;4.13;;
25982;SDS011;13773;48.868;10.730;2022-11-22T02:58:23;5.50;;;4.07;;
25982;SDS011;13773;48.868;10.730;2022-11-22T03:00:49;6.27;;;4.80;;
25982;SDS011;13773;48.868;10.730;2022-11-22T03:03:14;8.07;;;5.50;;
25982;SDS011;13773;48.868;10.730;2022-11-22T03:05:40;8.00;;;5.20;;
25982;SDS011;13773;48.868;10.730;2022-11-22T03:08:06;7.17;;;5.83;;
25982;SDS011;13773;48.868;10.730;2022-11-22T03:10:31;9.37;;;6.43;;
25982;SDS011;13773;48.868;10.730;2022-11-22T03:12:57;10.03;;;6.13;;
25982;SDS011;13773;48.868;10.730;2022-11-22T03:15:24;8.87;;;6.63;;
25982;SDS011;13773;48.868;10.730;2022-11-22T03:17:58;12.57;;;6.80;;
25982;SDS011;13773;48.868;10.730;2022-11-22T03:20:26;8.30;;;6.63;;
25982;SDS011;13773;48.868;10.730;2022-11-22T03:22:52;8.97;;;7.13;;
25982;SDS011;13773;48.868;10.730;2022-11-22T03:25:17;10.70;;;7.33;;
25982;SDS011;13773;48.868;10.730;2022-11-22T03:27:43;7.70;;;6.87;;
25982;SDS011;13773;48.868;10.730;2022-11-22T03:30:09;10.40;;;8.23;;
25982;SDS011;13773;48.868;10.730;2022-11-22T03:32:35;9.77;;;6.97;;
25982;SDS011;13773;48.868;10.730;2022-11-22T03:35:01;8.10;;;6.97;;
25982;SDS011;13773;48.868;10.730;2022-11-22T03:37:26;10.10;;;7.60;;
25982;SDS011;13773;48.868;10.730;2022-11-22T03:39:52;9.70;;;7.70;;
25982;SDS011;13773;48.868;10.730;2022-11-22T03:42:18;9.47;;;7.47;;
25982;SDS011;13773;48.868;10.730;2022-11-22T03:44:44;10.77;;;7.60;;
25982;SDS011;13773;48.868;10.730;2022-11-22T03:47:09;10.97;;;7.53;;
25982;SDS011;13773;48.868;10.730;2022-11-22T03:49:35;10.27;;;7.70;;
25982;SDS011;13773;48.868;10.730;2022-11-22T03:52:01;10.27;;;8.17;;
25982;SDS011;13773;48.868;10.730;2022-11-22T03:54:27;11.27;;;8.47;;
25982;SDS011;13773;48.868;10.730;2022-11-22T03:56:52;11.43;;;8.10;;
25982;SDS011;13773;48.868;10.730;2022-11-22T03:59:18;11.50;;;8.37;;
25982;SDS011;13773;48.868;10.730;2022-11-22T04:01:44;12.73;;;8.37;;
25982;SDS011;13773;48.868;10.730;2022-11-22T04:04:10;11.40;;;8.67;;
25982;SDS011;13773;48.868;10.730;2022-11-22T04:06:36;13.23;;;9.10;;
25982;SDS011;13773;48.868;10.730;2022-11-22T04:09:02;13.20;;;8.53;;
25982;SDS011;13773;48.868;10.730;2022-11-22T04:11:28;11.97;;;9.20;;
25982;SDS011;13773;48.868;10.730;2022-11-22T04:13:54;12.00;;;8.97;;
25982;SDS011;13773;48.868;10.730;2022-11-22T04:16:39;15.03;;;8.93;;
25982;SDS011;13773;48.868;10.730;2022-11-22T04:19:04;11.33;;;8.87;;
25982;SDS011;13773;48.868;10.730;2022-11-22T04:21:30;15.80;;;10.17;;
25982;SDS011;13773;48.868;10.730;2022-11-22T04:24:08;14.20;;;9.83;;
25982;SDS011;13773;48.868;10.730;2022-11-22T04:26:54;13.83;;;10.20;;
25982;SDS011;13773;48.868;10.730;2022-11-22T04:29:20;13.97;;;10.00;;
25982;SDS011;13773;48.868;10.730;2022-11-22T04:31:46;14.30;;;10.80;;
25982;SDS011;13773;48.868;10.730;2022-11-22T04:34:32;13.60;;;10.30;;
25982;SDS011;13773;48.868;10.730;2022-11-22T04:36:58;15.93;;;10.90;;
25982;SDS011;13773;48.868;10.730;2022-11-22T04:39:24;18.40;;;10.70;;
25982;SDS011;13773;48.868;10.730;2022-11-22T04:41:53;17.03;;;11.83;;
25982;SDS011;13773;48.868;10.730;2022-11-22T04:44:38;17.57;;;11.53;;
25982;SDS011;13773;48.868;10.730;2022-11-22T04:47:05;15.07;;;10.67;;
25982;SDS011;13773;48.868;10.730;2022-11-22T04:49:34;18.93;;;11.83;;
25982;SDS011;13773;48.868;10.730;2022-11-22T04:52:00;15.40;;;11.50;;
25982;SDS011;13773;48.868;10.730;2022-11-22T04:54:45;18.53;;;11.53;;
25982;SDS011;13773;48.868;10.730;2022-11-22T04:57:10;17.07;;;11.93;;
25982;SDS011;13773;48.868;10.730;2022-11-22T04:59:36;15.50;;;11.07;;
25982;SDS011;13773;48.868;10.730;2022-11-22T05:02:02;16.27;;;11.00;;
25982;SDS011;13773;48.868;10.730;2022-11-22T05:04:28;14.33;;;10.23;;
25982;SDS011;13773;48.868;10.730;2022-11-22T05:06:53;13.47;;;10.10;;
25982;SDS011;13773;48.868;10.730;2022-11-22T05:09:22;13.20;;;9.53;;
25982;SDS011;13773;48.868;10.730;2022-11-22T05:11:48;14.83;;;9.77;;
25982;SDS011;13773;48.868;10.730;2022-11-22T05:14:14;12.67;;;9.63;;
25982;SDS011;13773;48.868;10.730;2022-11-22T05:16:39;14.40;;;9.90;;
25982;SDS011;13773;48.868;10.730;2022-11-22T05:19:05;11.93;;;8.80;;
25982;SDS011;13773;48.868;10.730;2022-11-22T05:21:31;13.20;;;9.43;;
25982;SDS011;13773;48.868;10.730;2022-11-22T05:23:59;13.27;;;8.80;;
25982;SDS011;13773;48.868;10.730;2022-11-22T05:26:27;15.37;;;9.03;;
25982;SDS011;13773;48.868;10.730;2022-11-22T05:28:57;12.03;;;7.97;;
25982;SDS011;13773;48.868;10.730;2022-11-22T05:31:26;11.97;;;8.27;;
25982;SDS011;13773;48.868;10.730;2022-11-22T05:33:52;13.10;;;8.80;;
25982;SDS011;13773;48.868;10.730;2022-11-22T05:36:20;11.80;;;8.70;;
25982;SDS011;13773;48.868;10.730;2022-11-22T05:38:46;13.43;;;8.90;;
25982;SDS011;13773;48.868;10.730;2022-11-22T05:41:13;9.57;;;7.70;;
25982;SDS011;13773;48.868;10.730;2022-11-22T05:43:39;12.60;;;8.20;;
25982;SDS011;13773;48.868;10.730;2022-11-22T05:48:32;14.50;;;8.93;;
25982;SDS011;13773;48.868;10.730;2022-11-22T05:51:01;11.20;;;9.13;;
25982;SDS011;13773;48.868;10.730;2022-11-22T05:53:28;12.83;;;8.10;;
25982;SDS011;13773;48.868;10.730;2022-11-22T05:55:54;12.57;;;8.67;;
25982;SDS011;13773;48.868;10.730;2022-11-22T05:58:19;15.03;;;9.47;;
25982;SDS011;13773;48.868;10.730;2022-11-22T06:00:45;11.70;;;8.67;;
25982;SDS011;13773;48.868;10.730;2022-11-22T06:03:11;15.90;;;8.43;;
25982;SDS011;13773;48.868;10.730;2022-11-22T06:05:36;14.87;;;8.50;;
25982;SDS011;13773;48.868;10.730;2022-11-22T06:08:02;15.87;;;9.20;;
25982;SDS011;13773;48.868;10.730;2022-11-22T06:10:28;14.13;;;9.17;;
25982;SDS011;13773;48.868;10.730;2022-11-22T06:12:54;18.17;;;9.53;;
25982;SDS011;13773;48.868;10.730;2022-11-22T06:15:20;12.43;;;9.00;;
25982;SDS011;13773;48.868;10.730;2022-11-22T06:17:46;13.37;;;8.77;;
25982;SDS011;13773;48.868;10.730;2022-11-22T06:20:12;14.27;;;10.17;;
25982;SDS011;13773;48.868;10.730;2022-11-22T06:22:38;21.93;;;9.60;;
25982;SDS011;13773;48.868;10.730;2022-11-22T06:25:04;13.70;;;9.40;;
25982;SDS011;13773;48.868;10.730;2022-11-22T06:27:30;16.73;;;9.27;;
25982;SDS011;13773;48.868;10.730;2022-11-22T06:29:56;15.47;;;10.00;;
25982;SDS011;13773;48.868;10.730;2022-11-22T06:32:21;16.33;;;9.37;;
25982;SDS011;13773;48.868;10.730;2022-11-22T06:34:47;17.50;;;9.17;;
25982;SDS011;13773;48.868;10.730;2022-11-22T06:37:14;13.83;;;9.20;;
25982;SDS011;13773;48.868;10.730;2022-11-22T06:39:40;15.70;;;9.20;;
25982;SDS011;13773;48.868;10.730;2022-11-22T06:42:06;12.77;;;8.60;;
25982;SDS011;13773;48.868;10.730;2022-11-22T06:44:31;16.67;;;9.70;;
25982;SDS011;13773;48.868;10.730;2022-11-22T06:46:58;16.70;;;9.80;;
25982;SDS011;13773;48.868;10.730;2022-11-22T06:49:24;15.60;;;9.63;;
25982;SDS011;13773;48.868;10.730;2022-11-22T06:51:49;17.03;;;9.30;;
25982;SDS011;13773;48.868;10.730;2022-11-22T06:54:15;13.77;;;8.90;;
25982;SDS011;13773;48.868;10.730;2022-11-22T06:56:41;14.47;;;8.60;;
25982;SDS011;13773;48.868;10.730;2022-11-22T06:59:07;15.43;;;8.80;;
25982;SDS011;13773;48.868;10.730;2022-11-22T07:01:33;14.30;;;8.57;;
25982;SDS011;13773;48.868;10.730;2022-11-22T07:04:00;12.37;;;8.57;;
25982;SDS011;13773;48.868;10.730;2022-11-22T07:06:27;13.23;;;9.17;;
25982;SDS011;13773;48.868;10.730;2022-11-22T07:08:55;13.57;;;8.33;;
25982;SDS011;13773;48.868;10.730;2022-11-22T07:11:22;11.40;;;9.10;;
25982;SDS011;13773;48.868;10.730;2022-11-22T07:13:50;12.03;;;9.33;;
25982;SDS011;13773;48.868;10.730;2022-11-22T07:16:17;13.47;;;9.10;;
25982;SDS011;13773;48.868;10.730;2022-11-22T07:18:44;16.10;;;9.57;;
25982;SDS011;13773;48.868;10.730;2022-11-22T07:21:13;15.80;;;9.07;;
25982;SDS011;13773;48.868;10.730;2022-11-22T07:23:39;13.27;;;9.70;;
25982;SDS011;13773;48.868;10.730;2022-11-22T07:26:06;13.13;;;9.00;;
25982;SDS011;13773;48.868;10.730;2022-11-22T07:28:32;14.27;;;9.23;;
25982;SDS011;13773;48.868;10.730;2022-11-22T07:30:58;15.53;;;9.73;;
25982;SDS011;13773;48.868;10.730;2022-11-22T07:33:25;15.13;;;9.87;;
25982;SDS011;13773;48.868;10.730;2022-11-22T07:35:51;13.23;;;10.03;;
25982;SDS011;13773;48.868;10.730;2022-11-22T07:38:17;14.80;;;9.70;;
25982;SDS011;13773;48.868;10.730;2022-11-22T07:40:42;13.77;;;8.67;;
25982;SDS011;13773;48.868;10.730;2022-11-22T07:43:08;12.93;;;8.90;;
25982;SDS011;13773;48.868;10.730;2022-11-22T07:45:34;15.40;;;10.20;;
25982;SDS011;13773;48.868;10.730;2022-11-22T07:48:00;12.50;;;9.17;;
25982;SDS011;13773;48.868;10.730;2022-11-22T07:50:26;14.27;;;10.20;;
25982;SDS011;13773;48.868;10.730;2022-11-22T07:52:58;16.67;;;9.97;;
25982;SDS011;13773;48.868;10.730;2022-11-22T07:55:24;12.93;;;9.40;;
25982;SDS011;13773;48.868;10.730;2022-11-22T07:57:54;14.73;;;9.60;;
25982;SDS011;13773;48.868;10.730;2022-11-22T08:00:23;16.30;;;10.10;;
25982;SDS011;13773;48.868;10.730;2022-11-22T08:02:49;21.43;;;13.63;;
25982;SDS011;13773;48.868;10.730;2022-11-22T08:05:15;16.27;;;12.23;;
25982;SDS011;13773;48.868;10.730;2022-11-22T08:07:48;16.00;;;11.20;;
25982;SDS011;13773;48.868;10.730;2022-11-22T08:10:19;13.73;;;11.03;;
25982;SDS011;13773;48.868;10.730;2022-11-22T08:12:45;23.43;;;10.80;;
25982;SDS011;13773;48.868;10.730;2022-11-22T08:15:13;14.40;;;9.87;;
25982;SDS011;13773;48.868;10.730;2022-11-22T08:17:40;15.60;;;10.50;;
25982;SDS011;13773;48.868;10.730;2022-11-22T08:20:06;16.50;;;9.60;;
25982;SDS011;13773;48.868;10.730;2022-11-22T08:22:33;14.27;;;9.87;;
25982;SDS011;13773;48.868;10.730;2022-11-22T08:25:00;13.57;;;9.33;;
25982;SDS011;13773;48.868;10.730;2022-11-22T08:27:26;11.80;;;8.73;;
25982;SDS011;13773;48.868;10.730;2022-11-22T08:29:52;16.10;;;11.77;;
25982;SDS011;13773;48.868;10.730;2022-11-22T08:32:18;15.63;;;12.37;;
25982;SDS011;13773;48.868;10.730;2022-11-22T08:34:43;20.40;;;13.93;;
25982;SDS011;13773;48.868;10.730;2022-11-22T08:37:09;16.77;;;12.97;;
25982;SDS011;13773;48.868;10.730;2022-11-22T08:39:35;15.30;;;10.70;;
25982;SDS011;13773;48.868;10.730;2022-11-22T08:42:00;17.43;;;10.90;;
25982;SDS011;13773;48.868;10.730;2022-11-22T08:44:26;15.13;;;11.40;;
25982;SDS011;13773;48.868;10.730;2022-11-22T08:46:52;14.60;;;9.70;;
25982;SDS011;13773;48.868;10.730;2022-11-22T08:49:17;10.53;;;8.50;;
25982;SDS011;13773;48.868;10.730;2022-11-22T08:51:43;14.00;;;8.83;;
25982;SDS011;13773;48.868;10.730;2022-11-22T08:54:10;11.07;;;8.97;;
25982;SDS011;13773;48.868;10.730;2022-11-22T08:56:37;11.00;;;8.23;;
25982;SDS011;13773;48.868;10.730;2022-11-22T08:59:02;11.70;;;8.53;;
25982;SDS011;13773;48.868;10.730;2022-11-22T09:01:28;12.60;;;8.77;;
25982;SDS011;13773;48.868;10.730;2022-11-22T09:03:54;13.93;;;9.30;;
25982;SDS011;13773;48.868;10.730;2022-11-22T09:06:20;9.87;;;8.10;;
25982;SDS011;13773;48.868;10.730;2022-11-22T09:08:46;10.80;;;8.03;;
25982;SDS011;13773;48.868;10.730;2022-11-22T09:11:13;11.47;;;9.23;;
25982;SDS011;13773;48.868;10.730;2022-11-22T09:13:40;12.20;;;9.20;;
25982;SDS011;13773;48.868;10.730;2022-11-22T09:16:07;10.67;;;8.50;;
25982;SDS011;13773;48.868;10.730;2022-11-22T09:18:35;9.63;;;7.73;;
25982;SDS011;13773;48.868;10.730;2022-11-22T09:21:19;9.57;;;6.73;;
25982;SDS011;13773;48.868;10.730;2022-11-22T09:23:46;8.87;;;6.87;;
25982;SDS011;13773;48.868;10.730;2022-11-22T09:26:14;8.90;;;5.83;;
25982;SDS011;13773;48.868;10.730;2022-11-22T09:28:41;8.23;;;5.30;;
25982;SDS011;13773;48.868;10.730;2022-11-22T09:31:11;12.33;;;6.47;;
25982;SDS011;13773;48.868;10.730;2022-11-22T09:33:39;10.90;;;5.90;;
25982;SDS011;13773;48.868;10.730;2022-11-22T09:36:10;8.90;;;4.63;;
25982;SDS011;13773;48.868;10.730;2022-11-22T09:38:38;10.30;;;6.40;;
25982;SDS011;13773;48.868;10.730;2022-11-22T09:41:14;11.10;;;6.57;;
25982;SDS011;13773;48.868;10.730;2022-11-22T09:46:51;7.93;;;5.17;;
25982;SDS011;13773;48.868;10.730;2022-11-22T09:54:58;9.73;;;5.77;;
25982;SDS011;13773;48.868;10.730;2022-11-22T09:57:36;7.90;;;4.83;;
25982;SDS011;13773;48.868;10.730;2022-11-22T10:00:05;8.77;;;4.17;;
25982;SDS011;13773;48.868;10.730;2022-11-22T10:02:34;6.87;;;4.00;;
25982;SDS011;13773;48.868;10.730;2022-11-22T10:05:06;8.47;;;3.93;;
25982;SDS011;13773;48.868;10.730;2022-11-22T10:07:44;7.40;;;4.33;;
25982;SDS011;13773;48.868;10.730;2022-11-22T10:10:17;7.23;;;4.50;;
25982;SDS011;13773;48.868;10.730;2022-11-22T10:18:16;10.37;;;5.00;;
25982;SDS011;13773;48.868;10.730;2022-11-22T10:20:49;12.10;;;4.23;;
25982;SDS011;13773;48.868;10.730;2022-11-22T10:23:23;10.70;;;3.57;;
25982;SDS011;13773;48.868;10.730;2022-11-22T10:28:35;12.37;;;5.63;;
25982;SDS011;13773;48.868;10.730;2022-11-22T10:33:59;10.57;;;3.93;;
25982;SDS011;13773;48.868;10.730;2022-11-22T10:42:22;8.10;;;3.50;;
25982;SDS011;13773;48.868;10.730;2022-11-22T10:47:42;10.17;;;3.17;;
25982;SDS011;13773;48.868;10.730;2022-11-22T10:53:22;8.50;;;3.23;;
25982;SDS011;13773;48.868;10.730;2022-11-22T10:56:12;7.43;;;3.37;;
25982;SDS011;13773;48.868;10.730;2022-11-22T10:59:03;9.50;;;3.87;;
25982;SDS011;13773;48.868;10.730;2022-11-22T11:01:39;7.57;;;3.73;;
25982;SDS011;13773;48.868;10.730;2022-11-22T11:04:16;6.97;;;3.20;;
25982;SDS011;13773;48.868;10.730;2022-11-22T11:06:53;9.77;;;3.80;;
25982;SDS011;13773;48.868;10.730;2022-11-22T11:12:01;9.47;;;3.47;;
25982;SDS011;13773;48.868;10.730;2022-11-22T11:14:35;5.73;;;3.13;;
25982;SDS011;13773;48.868;10.730;2022-11-22T11:17:08;9.37;;;3.30;;
25982;SDS011;13773;48.868;10.730;2022-11-22T11:19:44;7.70;;;4.00;;
25982;SDS011;13773;48.868;10.730;2022-11-22T11:22:17;7.80;;;3.83;;
25982;SDS011;13773;48.868;10.730;2022-11-22T11:24:46;10.20;;;3.90;;
25982;SDS011;13773;48.868;10.730;2022-11-22T11:27:12;8.33;;;3.47;;
25982;SDS011;13773;48.868;10.730;2022-11-22T11:29:42;9.67;;;4.10;;
25982;SDS011;13773;48.868;10.730;2022-11-22T11:32:15;9.10;;;3.33;;
25982;SDS011;13773;48.868;10.730;2022-11-22T11:34:57;6.50;;;3.57;;
25982;SDS011;13773;48.868;10.730;2022-11-22T11:37:31;6.07;;;3.53;;
25982;SDS011;13773;48.868;10.730;2022-11-22T11:39:58;7.80;;;3.20;;
25982;SDS011;13773;48.868;10.730;2022-11-22T11:42:25;9.57;;;3.20;;
25982;SDS011;13773;48.868;10.730;2022-11-22T11:44:53;7.07;;;2.63;;
25982;SDS011;13773;48.868;10.730;2022-11-22T11:47:39;5.77;;;2.60;;
25982;SDS011;13773;48.868;10.730;2022-11-22T11:50:15;5.30;;;2.47;;
25982;SDS011;13773;48.868;10.730;2022-11-22T11:53:19;6.27;;;3.00;;
25982;SDS011;13773;48.868;10.730;2022-11-22T11:55:45;7.77;;;3.27;;
25982;SDS011;13773;48.868;10.730;2022-11-22T11:58:17;9.87;;;4.37;;
25982;SDS011;13773;48.868;10.730;2022-11-22T12:00:47;8.97;;;4.20;;
25982;SDS011;13773;48.868;10.730;2022-11-22T12:03:14;7.90;;;3.37;;
25982;SDS011;13773;48.868;10.730;2022-11-22T12:05:42;7.13;;;3.97;;
25982;SDS011;13773;48.868;10.730;2022-11-22T12:08:27;6.07;;;3.17;;
25982;SDS011;13773;48.868;10.730;2022-11-22T12:10:57;9.63;;;3.00;;
25982;SDS011;13773;48.868;10.730;2022-11-22T12:13:44;10.33;;;4.07;;
25982;SDS011;13773;48.868;10.730;2022-11-22T12:16:15;6.43;;;3.37;;
25982;SDS011;13773;48.868;10.730;2022-11-22T12:27:11;8.37;;;3.60;;
25982;SDS011;13773;48.868;10.730;2022-11-22T12:29:38;7.43;;;4.30;;
25982;SDS011;13773;48.868;10.730;2022-11-22T12:35:21;7.47;;;3.97;;
25982;SDS011;13773;48.868;10.730;2022-11-22T12:37:44;6.83;;;4.00;;
25982;SDS011;13773;48.868;10.730;2022-11-22T12:40:25;8.73;;;4.63;;
25982;SDS011;13773;48.868;10.730;2022-11-22T12:42:57;12.67;;;4.43;;
25982;SDS011;13773;48.868;10.730;2022-11-22T12:47:56;7.37;;;4.63;;
25982;SDS011;13773;48.868;10.730;2022-11-22T12:53:02;10.30;;;5.43;;
25982;SDS011;13773;48.868;10.730;2022-11-22T13:01:41;10.00;;;6.27;;
25982;SDS011;13773;48.868;10.730;2022-11-22T13:04:14;9.70;;;6.07;;
25982;SDS011;13773;48.868;10.730;2022-11-22T13:09:22;10.53;;;6.40;;
25982;SDS011;13773;48.868;10.730;2022-11-22T13:12:01;8.63;;;6.53;;
25982;SDS011;13773;48.868;10.730;2022-11-22T13:17:19;10.20;;;7.17;;
25982;SDS011;13773;48.868;10.730;2022-11-22T13:19:49;8.50;;;6.90;;
25982;SDS011;13773;48.868;10.730;2022-11-22T13:22:29;13.17;;;6.93;;
25982;SDS011;13773;48.868;10.730;2022-11-22T13:28:01;10.40;;;6.60;;
25982;SDS011;13773;48.868;10.730;2022-11-22T13:30:34;10.97;;;7.00;;
25982;SDS011;13773;48.868;10.730;2022-11-22T13:33:03;10.13;;;7.70;;
25982;SDS011;13773;48.868;10.730;2022-11-22T13:38:08;13.17;;;9.00;;
25982;SDS011;13773;48.868;10.730;2022-11-22T13:40:37;11.67;;;7.43;;
25982;SDS011;13773;48.868;10.730;2022-11-22T13:45:47;9.37;;;7.53;;
25982;SDS011;13773;48.868;10.730;2022-11-22T13:51:06;10.90;;;6.83;;
25982;SDS011;13773;48.868;10.730;2022-11-22T13:53:34;7.87;;;6.00;;
25982;SDS011;13773;48.868;10.730;2022-11-22T14:06:47;9.43;;;6.63;;
25982;SDS011;13773;48.868;10.730;2022-11-22T14:09:24;10.47;;;6.50;;
25982;SDS011;13773;48.868;10.730;2022-11-22T14:14:30;9.30;;;7.10;;
25982;SDS011;13773;48.868;10.730;2022-11-22T14:25:57;10.73;;;7.03;;
25982;SDS011;13773;48.868;10.730;2022-11-22T14:31:24;11.27;;;6.70;;
25982;SDS011;13773;48.868;10.730;2022-11-22T14:37:32;7.90;;;5.87;;
25982;SDS011;13773;48.868;10.730;2022-11-22T14:39:49;10.43;;;6.37;;
25982;SDS011;13773;48.868;10.730;2022-11-22T14:48:18;8.93;;;4.53;;
25982;SDS011;13773;48.868;10.730;2022-11-22T14:50:49;9.00;;;4.73;;
25982;SDS011;13773;48.868;10.730;2022-11-22T14:53:23;11.07;;;5.07;;
25982;SDS011;13773;48.868;10.730;2022-11-22T14:56:16;8.10;;;4.63;;
25982;SDS011;13773;48.868;10.730;2022-11-22T15:12:29;11.43;;;4.13;;
25982;SDS011;13773;48.868;10.730;2022-11-22T15:17:54;6.73;;;3.00;;
25982;SDS011;13773;48.868;10.730;2022-11-22T15:20:39;6.70;;;3.30;;
25982;SDS011;13773;48.868;10.730;2022-11-22T15:25:49;9.90;;;4.47;;
25982;SDS011;13773;48.868;10.730;2022-11-22T15:28:24;10.23;;;4.27;;
25982;SDS011;13773;48.868;10.730;2022-11-22T15:30:50;9.03;;;3.67;;
25982;SDS011;13773;48.868;10.730;2022-11-22T15:33:31;9.43;;;3.73;;
25982;SDS011;13773;48.868;10.730;2022-11-22T15:36:01;9.10;;;3.30;;
25982;SDS011;13773;48.868;10.730;2022-11-22T15:38:43;4.10;;;2.53;;
25982;SDS011;13773;48.868;10.730;2022-11-22T15:41:28;10.73;;;3.50;;
25982;SDS011;13773;48.868;10.730;2022-11-22T15:43:56;6.27;;;2.83;;
25982;SDS011;13773;48.868;10.730;2022-11-22T15:46:23;7.53;;;3.33;;
25982;SDS011;13773;48.868;10.730;2022-11-22T15:48:51;9.70;;;2.80;;
25982;SDS011;13773;48.868;10.730;2022-11-22T15:51:22;6.93;;;2.80;;
25982;SDS011;13773;48.868;10.730;2022-11-22T15:56:39;7.17;;;2.93;;
25982;SDS011;13773;48.868;10.730;2022-11-22T16:01:50;9.10;;;3.10;;
25982;SDS011;13773;48.868;10.730;2022-11-22T16:04:20;12.07;;;3.13;;
25982;SDS011;13773;48.868;10.730;2022-11-22T16:06:51;11.43;;;2.90;;
25982;SDS011;13773;48.868;10.730;2022-11-22T16:09:29;9.60;;;2.70;;
25982;SDS011;13773;48.868;10.730;2022-11-22T16:12:04;10.23;;;2.90;;
25982;SDS011;13773;48.868;10.730;2022-11-22T16:14:49;9.63;;;3.70;;
25982;SDS011;13773;48.868;10.730;2022-11-22T16:17:15;12.17;;;3.10;;
25982;SDS011;13773;48.868;10.730;2022-11-22T16:19:47;10.67;;;3.87;;
25982;SDS011;13773;48.868;10.730;2022-11-22T16:22:29;8.70;;;3.40;;
25982;SDS011;13773;48.868;10.730;2022-11-22T16:27:45;9.53;;;2.83;;
25982;SDS011;13773;48.868;10.730;2022-11-22T16:30:11;8.37;;;2.90;;
25982;SDS011;13773;48.868;10.730;2022-11-22T16:32:37;8.07;;;2.53;;
25982;SDS011;13773;48.868;10.730;2022-11-22T16:35:13;8.90;;;2.20;;
25982;SDS011;13773;48.868;10.730;2022-11-22T16:37:39;5.40;;;2.27;;
25982;SDS011;13773;48.868;10.730;2022-11-22T16:40:07;6.10;;;2.63;;
25982;SDS011;13773;48.868;10.730;2022-11-22T16:42:33;11.73;;;2.43;;
25982;SDS011;13773;48.868;10.730;2022-11-22T16:45:02;6.83;;;1.97;;
25982;SDS011;13773;48.868;10.730;2022-11-22T16:47:29;8.73;;;2.63;;
25982;SDS011;13773;48.868;10.730;2022-11-22T16:49:55;6.37;;;2.10;;
25982;SDS011;13773;48.868;10.730;2022-11-22T16:52:21;7.00;;;1.83;;
25982;SDS011;13773;48.868;10.730;2022-11-22T16:54:49;5.73;;;2.30;;
25982;SDS011;13773;48.868;10.730;2022-11-22T16:57:15;8.73;;;2.30;;
25982;SDS011;13773;48.868;10.730;2022-11-22T16:59:40;4.90;;;2.10;;